sensor_id;sensor_type;location;lat;lon;timestamp;pressure;altitude;pressure_sealevel;temperature;humidity
46944;BME280;32678;43.852;25.952;2023-05-22T00:01:26;100986.25;;;20.49;61.11
46944;BME280;32678;43.852;25.952;2023-05-22T00:06:23;100987.22;;;20.23;61.72
46944;BME280;32678;43.852;25.952;2023-05-22T00:11:20;100990.06;;;20.07;62.97
46944;BME280;32678;43.852;25.952;2023-05-22T00:16:17;100990.47;;;20.14;62.30
46944;BME280;32678;43.852;25.952;2023-05-22T00:21:14;100993.03;;;20.03;62.64
46944;BME280;32678;43.852;25.952;2023-05-22T00:26:13;100998.00;;;19.82;62.89
46944;BME280;32678;43.852;25.952;2023-05-22T00:31:10;101006.41;;;19.76;63.21
46944;BME280;32678;43.852;25.952;2023-05-22T00:36:07;100999.72;;;19.83;62.87
46944;BME280;32678;43.852;25.952;2023-05-22T00:41:04;100992.69;;;19.95;62.64
46944;BME280;32678;43.852;25.952;2023-05-22T00:46:01;100989.41;;;19.91;62.37
46944;BME280;32678;43.852;25.952;2023-05-22T00:50:59;100988.03;;;19.98;62.14
46944;BME280;32678;43.852;25.952;2023-05-22T00:55:56;100981.50;;;19.64;63.37
46944;BME280;32678;43.852;25.952;2023-05-22T01:00:56;100980.72;;;19.62;63.38
46944;BME280;32678;43.852;25.952;2023-05-22T01:05:54;100992.00;;;19.66;63.53
46944;BME280;32678;43.852;25.952;2023-05-22T01:10:55;100978.03;;;19.35;64.46
46944;BME280;32678;43.852;25.952;2023-05-22T01:15:54;100968.06;;;19.39;64.75
46944;BME280;32678;43.852;25.952;2023-05-22T01:20:53;100960.38;;;19.49;65.04
46944;BME280;32678;43.852;25.952;2023-05-22T01:31:11;100937.97;;;19.90;63.99
46944;BME280;32678;43.852;25.952;2023-05-22T01:36:14;100956.19;;;20.09;63.38
46944;BME280;32678;43.852;25.952;2023-05-22T01:41:15;100948.84;;;20.25;63.07
46944;BME280;32678;43.852;25.952;2023-05-22T01:46:12;100952.28;;;20.40;62.43
46944;BME280;32678;43.852;25.952;2023-05-22T01:51:11;100950.31;;;20.29;61.48
46944;BME280;32678;43.852;25.952;2023-05-22T01:56:09;100944.28;;;20.27;61.26
46944;BME280;32678;43.852;25.952;2023-05-22T02:01:08;100941.09;;;20.35;60.99
46944;BME280;32678;43.852;25.952;2023-05-22T02:06:07;100945.13;;;20.41;60.71
46944;BME280;32678;43.852;25.952;2023-05-22T02:11:06;100947.06;;;20.51;60.69
46944;BME280;32678;43.852;25.952;2023-05-22T02:16:05;100961.09;;;20.66;60.39
46944;BME280;32678;43.852;25.952;2023-05-22T02:21:02;100964.22;;;20.47;59.58
46944;BME280;32678;43.852;25.952;2023-05-22T02:26:04;100969.41;;;20.49;59.57
46944;BME280;32678;43.852;25.952;2023-05-22T02:31:01;100965.28;;;20.32;59.83
46944;BME280;32678;43.852;25.952;2023-05-22T02:35:59;100968.47;;;20.50;59.05
46944;BME280;32678;43.852;25.952;2023-05-22T02:40:55;100964.75;;;20.52;59.13
46944;BME280;32678;43.852;25.952;2023-05-22T02:45:53;100972.53;;;20.43;59.69
46944;BME280;32678;43.852;25.952;2023-05-22T02:50:49;100969.22;;;20.52;59.34
46944;BME280;32678;43.852;25.952;2023-05-22T02:55:46;100974.88;;;20.47;59.62
46944;BME280;32678;43.852;25.952;2023-05-22T03:00:43;100977.97;;;20.41;59.74
46944;BME280;32678;43.852;25.952;2023-05-22T03:05:40;100978.47;;;20.59;59.15
46944;BME280;32678;43.852;25.952;2023-05-22T03:10:38;100989.25;;;20.32;59.82
46944;BME280;32678;43.852;25.952;2023-05-22T03:15:35;100978.34;;;20.48;59.77
46944;BME280;32678;43.852;25.952;2023-05-22T03:20:41;100976.53;;;20.61;59.44
46944;BME280;32678;43.852;25.952;2023-05-22T03:25:37;100972.28;;;20.58;59.42
46944;BME280;32678;43.852;25.952;2023-05-22T03:30:34;100979.34;;;20.34;60.31
46944;BME280;32678;43.852;25.952;2023-05-22T03:35:41;100970.91;;;20.40;60.40
46944;BME280;32678;43.852;25.952;2023-05-22T03:40:40;100976.97;;;20.29;60.61
46944;BME280;32678;43.852;25.952;2023-05-22T03:45:38;100975.50;;;20.13;61.82
46944;BME280;32678;43.852;25.952;2023-05-22T03:50:35;100974.41;;;20.15;61.98
46944;BME280;32678;43.852;25.952;2023-05-22T03:55:32;100977.50;;;20.22;61.77
46944;BME280;32678;43.852;25.952;2023-05-22T04:00:29;100979.84;;;20.26;61.63
46944;BME280;32678;43.852;25.952;2023-05-22T04:05:28;100976.31;;;20.26;61.99
46944;BME280;32678;43.852;25.952;2023-05-22T04:10:25;100968.75;;;20.20;62.10
46944;BME280;32678;43.852;25.952;2023-05-22T04:15:22;100975.94;;;20.32;62.26
46944;BME280;32678;43.852;25.952;2023-05-22T04:20:20;100971.53;;;20.18;65.13
46944;BME280;32678;43.852;25.952;2023-05-22T04:25:19;100965.16;;;20.33;65.41
46944;BME280;32678;43.852;25.952;2023-05-22T04:30:16;100976.31;;;20.64;64.64
46944;BME280;32678;43.852;25.952;2023-05-22T04:35:14;100981.88;;;20.61;64.47
46944;BME280;32678;43.852;25.952;2023-05-22T04:40:13;100979.50;;;20.69;64.18
46944;BME280;32678;43.852;25.952;2023-05-22T04:45:10;100985.13;;;20.90;63.70
46944;BME280;32678;43.852;25.952;2023-05-22T04:50:09;100995.72;;;21.02;62.95
46944;BME280;32678;43.852;25.952;2023-05-22T04:55:10;100991.25;;;21.03;62.12
46944;BME280;32678;43.852;25.952;2023-05-22T05:00:08;100998.50;;;21.13;61.43
46944;BME280;32678;43.852;25.952;2023-05-22T05:05:07;100994.16;;;20.87;61.89
46944;BME280;32678;43.852;25.952;2023-05-22T05:10:04;100992.81;;;20.82;62.99
46944;BME280;32678;43.852;25.952;2023-05-22T05:15:02;100996.38;;;20.57;64.12
46944;BME280;32678;43.852;25.952;2023-05-22T05:19:59;100990.28;;;20.55;64.09
46944;BME280;32678;43.852;25.952;2023-05-22T05:24:56;100989.16;;;20.83;63.84
46944;BME280;32678;43.852;25.952;2023-05-22T05:29:53;100987.25;;;20.85;63.33
46944;BME280;32678;43.852;25.952;2023-05-22T05:34:55;100991.91;;;20.94;63.07
46944;BME280;32678;43.852;25.952;2023-05-22T05:40:14;100999.72;;;20.84;63.33
46944;BME280;32678;43.852;25.952;2023-05-22T05:45:16;100995.06;;;20.75;63.55
46944;BME280;32678;43.852;25.952;2023-05-22T05:50:14;100998.50;;;20.52;64.92
46944;BME280;32678;43.852;25.952;2023-05-22T05:55:11;100992.81;;;20.69;64.43
46944;BME280;32678;43.852;25.952;2023-05-22T06:00:11;101001.41;;;20.98;64.00
46944;BME280;32678;43.852;25.952;2023-05-22T06:05:11;101009.56;;;21.07;63.52
46944;BME280;32678;43.852;25.952;2023-05-22T06:10:10;101015.56;;;21.11;63.14
46944;BME280;32678;43.852;25.952;2023-05-22T06:15:20;101023.25;;;21.15;63.28
46944;BME280;32678;43.852;25.952;2023-05-22T06:20:17;101017.47;;;21.09;63.28
46944;BME280;32678;43.852;25.952;2023-05-22T06:25:15;101014.28;;;21.16;61.42
46944;BME280;32678;43.852;25.952;2023-05-22T06:30:12;101024.16;;;20.78;60.59
46944;BME280;32678;43.852;25.952;2023-05-22T06:35:25;101015.84;;;20.70;61.55
46944;BME280;32678;43.852;25.952;2023-05-22T06:40:24;101020.81;;;20.87;60.88
46944;BME280;32678;43.852;25.952;2023-05-22T06:45:26;101007.34;;;20.52;62.04
46944;BME280;32678;43.852;25.952;2023-05-22T06:50:53;101003.63;;;20.42;63.42
46944;BME280;32678;43.852;25.952;2023-05-22T06:55:51;101001.34;;;19.98;64.63
46944;BME280;32678;43.852;25.952;2023-05-22T07:01:03;100991.50;;;19.73;64.67
46944;BME280;32678;43.852;25.952;2023-05-22T07:06:08;100997.22;;;19.55;65.40
46944;BME280;32678;43.852;25.952;2023-05-22T07:11:07;101009.06;;;19.76;65.00
46944;BME280;32678;43.852;25.952;2023-05-22T07:16:04;100983.53;;;19.46;64.70
46944;BME280;32678;43.852;25.952;2023-05-22T07:21:03;100996.81;;;19.73;64.17
46944;BME280;32678;43.852;25.952;2023-05-22T07:26:00;101003.94;;;19.73;64.59
46944;BME280;32678;43.852;25.952;2023-05-22T07:31:04;101003.94;;;19.73;64.13
46944;BME280;32678;43.852;25.952;2023-05-22T07:36:01;100999.84;;;20.19;62.98
46944;BME280;32678;43.852;25.952;2023-05-22T07:40:59;101003.81;;;20.26;62.05
46944;BME280;32678;43.852;25.952;2023-05-22T07:45:57;100994.88;;;20.65;60.94
46944;BME280;32678;43.852;25.952;2023-05-22T07:51:05;100994.34;;;20.35;61.71
46944;BME280;32678;43.852;25.952;2023-05-22T07:56:03;100992.78;;;20.33;62.54
46944;BME280;32678;43.852;25.952;2023-05-22T08:01:01;100989.34;;;20.43;62.34
46944;BME280;32678;43.852;25.952;2023-05-22T08:06:04;100991.34;;;21.01;60.89
46944;BME280;32678;43.852;25.952;2023-05-22T08:11:02;100994.59;;;20.94;60.88
46944;BME280;32678;43.852;25.952;2023-05-22T08:16:00;100982.97;;;20.82;61.52
46944;BME280;32678;43.852;25.952;2023-05-22T08:20:57;100991.53;;;21.24;60.44
46944;BME280;32678;43.852;25.952;2023-05-22T08:25:56;100984.28;;;21.49;60.13
46944;BME280;32678;43.852;25.952;2023-05-22T08:30:54;100985.78;;;21.99;58.60
46944;BME280;32678;43.852;25.952;2023-05-22T08:35:51;100982.22;;;22.23;58.22
46944;BME280;32678;43.852;25.952;2023-05-22T08:40:48;100974.22;;;22.56;57.61
46944;BME280;32678;43.852;25.952;2023-05-22T08:45:46;100980.19;;;22.82;56.36
46944;BME280;32678;43.852;25.952;2023-05-22T08:50:44;100974.22;;;22.89;56.82
46944;BME280;32678;43.852;25.952;2023-05-22T08:55:47;100968.84;;;23.01;57.16
46944;BME280;32678;43.852;25.952;2023-05-22T09:00:44;100962.97;;;23.18;56.92
46944;BME280;32678;43.852;25.952;2023-05-22T09:05:41;100960.13;;;23.30;56.34
46944;BME280;32678;43.852;25.952;2023-05-22T09:10:38;100958.06;;;23.45;55.76
46944;BME280;32678;43.852;25.952;2023-05-22T09:15:36;100964.06;;;23.58;55.78
46944;BME280;32678;43.852;25.952;2023-05-22T09:20:33;100957.81;;;23.69;55.56
46944;BME280;32678;43.852;25.952;2023-05-22T09:25:30;100953.09;;;23.82;55.97
46944;BME280;32678;43.852;25.952;2023-05-22T09:36:02;100944.53;;;24.09;54.16
46944;BME280;32678;43.852;25.952;2023-05-22T09:41:21;100949.19;;;23.86;49.07
46944;BME280;32678;43.852;25.952;2023-05-22T09:46:18;100939.50;;;23.95;49.83
46944;BME280;32678;43.852;25.952;2023-05-22T09:51:17;100934.88;;;24.17;50.03
46944;BME280;32678;43.852;25.952;2023-05-22T09:56:17;100926.91;;;24.06;48.40
46944;BME280;32678;43.852;25.952;2023-05-22T10:01:31;100935.94;;;23.85;49.70
46944;BME280;32678;43.852;25.952;2023-05-22T10:06:31;100932.69;;;24.11;48.24
46944;BME280;32678;43.852;25.952;2023-05-22T10:11:31;100931.28;;;24.28;48.72
46944;BME280;32678;43.852;25.952;2023-05-22T10:16:28;100924.75;;;24.51;47.21
46944;BME280;32678;43.852;25.952;2023-05-22T10:21:26;100924.50;;;24.03;48.27
46944;BME280;32678;43.852;25.952;2023-05-22T10:26:24;100916.88;;;24.29;47.41
46944;BME280;32678;43.852;25.952;2023-05-22T10:31:26;100919.50;;;24.20;45.92
46944;BME280;32678;43.852;25.952;2023-05-22T10:36:31;100909.16;;;24.36;45.71
46944;BME280;32678;43.852;25.952;2023-05-22T10:41:33;100886.75;;;24.16;45.06
46944;BME280;32678;43.852;25.952;2023-05-22T10:46:31;100888.09;;;24.01;46.69
46944;BME280;32678;43.852;25.952;2023-05-22T10:51:28;100889.91;;;24.21;45.02
46944;BME280;32678;43.852;25.952;2023-05-22T10:56:31;100879.94;;;24.23;45.48
46944;BME280;32678;43.852;25.952;2023-05-22T11:01:29;100873.97;;;24.20;45.42
46944;BME280;32678;43.852;25.952;2023-05-22T11:06:36;100862.94;;;24.43;45.10
46944;BME280;32678;43.852;25.952;2023-05-22T11:11:33;100861.88;;;24.25;44.29
46944;BME280;32678;43.852;25.952;2023-05-22T11:16:33;100859.72;;;24.59;42.39
46944;BME280;32678;43.852;25.952;2023-05-22T11:21:41;100851.50;;;24.41;43.63
46944;BME280;32678;43.852;25.952;2023-05-22T11:26:41;100841.88;;;24.39;44.22
46944;BME280;32678;43.852;25.952;2023-05-22T11:31:39;100835.16;;;24.54;43.88
46944;BME280;32678;43.852;25.952;2023-05-22T11:36:36;100836.75;;;24.16;46.29
46944;BME280;32678;43.852;25.952;2023-05-22T11:41:34;100841.81;;;24.20;46.93
46944;BME280;32678;43.852;25.952;2023-05-22T11:46:30;100819.03;;;24.04;45.64
46944;BME280;32678;43.852;25.952;2023-05-22T11:51:28;100828.59;;;23.97;46.27
46944;BME280;32678;43.852;25.952;2023-05-22T11:56:26;100830.50;;;24.16;45.85
46944;BME280;32678;43.852;25.952;2023-05-22T12:01:22;100808.19;;;24.06;45.84
46944;BME280;32678;43.852;25.952;2023-05-22T12:06:19;100794.63;;;23.98;46.04
46944;BME280;32678;43.852;25.952;2023-05-22T12:11:17;100796.16;;;23.91;46.22
46944;BME280;32678;43.852;25.952;2023-05-22T12:16:17;100789.50;;;23.85;45.61
46944;BME280;32678;43.852;25.952;2023-05-22T12:21:14;100784.00;;;24.17;43.20
46944;BME280;32678;43.852;25.952;2023-05-22T12:26:14;100752.13;;;24.14;43.04
46944;BME280;32678;43.852;25.952;2023-05-22T12:31:12;100762.31;;;24.30;43.14
46944;BME280;32678;43.852;25.952;2023-05-22T12:36:15;100766.16;;;24.37;43.32
46944;BME280;32678;43.852;25.952;2023-05-22T12:41:16;100764.03;;;24.40;42.72
46944;BME280;32678;43.852;25.952;2023-05-22T12:46:13;100751.78;;;24.47;41.49
46944;BME280;32678;43.852;25.952;2023-05-22T12:56:38;100743.31;;;24.52;40.53
46944;BME280;32678;43.852;25.952;2023-05-22T13:01:42;100715.78;;;24.50;39.26
46944;BME280;32678;43.852;25.952;2023-05-22T13:06:39;100741.34;;;24.64;39.74
46944;BME280;32678;43.852;25.952;2023-05-22T13:11:39;100731.44;;;24.83;38.74
46944;BME280;32678;43.852;25.952;2023-05-22T13:16:37;100731.03;;;24.88;38.62
46944;BME280;32678;43.852;25.952;2023-05-22T13:21:34;100731.31;;;24.66;39.37
46944;BME280;32678;43.852;25.952;2023-05-22T13:26:31;100731.03;;;24.78;39.56
46944;BME280;32678;43.852;25.952;2023-05-22T13:31:28;100727.22;;;25.10;39.46
46944;BME280;32678;43.852;25.952;2023-05-22T13:36:29;100725.78;;;25.15;38.50
46944;BME280;32678;43.852;25.952;2023-05-22T13:41:26;100720.03;;;25.10;38.19
46944;BME280;32678;43.852;25.952;2023-05-22T13:46:23;100726.47;;;25.17;38.42
46944;BME280;32678;43.852;25.952;2023-05-22T13:51:20;100735.34;;;25.27;38.64
46944;BME280;32678;43.852;25.952;2023-05-22T13:56:18;100720.28;;;25.07;39.04
46944;BME280;32678;43.852;25.952;2023-05-22T14:01:15;100731.03;;;24.97;38.49
46944;BME280;32678;43.852;25.952;2023-05-22T14:06:12;100726.94;;;24.84;38.14
46944;BME280;32678;43.852;25.952;2023-05-22T14:11:10;100726.94;;;25.03;38.10
46944;BME280;32678;43.852;25.952;2023-05-22T14:16:07;100724.47;;;25.29;38.06
46944;BME280;32678;43.852;25.952;2023-05-22T14:21:04;100720.88;;;25.01;37.99
46944;BME280;32678;43.852;25.952;2023-05-22T14:26:01;100722.72;;;25.00;37.78
46944;BME280;32678;43.852;25.952;2023-05-22T14:30:58;100728.34;;;24.97;37.17
46944;BME280;32678;43.852;25.952;2023-05-22T14:35:56;100727.66;;;24.86;37.73
46944;BME280;32678;43.852;25.952;2023-05-22T14:40:54;100711.56;;;24.95;37.76
46944;BME280;32678;43.852;25.952;2023-05-22T14:45:51;100723.69;;;25.09;37.41
46944;BME280;32678;43.852;25.952;2023-05-22T14:50:49;100726.38;;;25.09;37.62
46944;BME280;32678;43.852;25.952;2023-05-22T14:55:53;100717.63;;;24.88;38.34
46944;BME280;32678;43.852;25.952;2023-05-22T15:00:56;100725.25;;;24.64;38.28
46944;BME280;32678;43.852;25.952;2023-05-22T15:05:53;100712.56;;;24.66;38.00
46944;BME280;32678;43.852;25.952;2023-05-22T15:10:50;100714.53;;;24.54;38.64
46944;BME280;32678;43.852;25.952;2023-05-22T15:15:48;100701.13;;;24.64;38.67
46944;BME280;32678;43.852;25.952;2023-05-22T15:20:45;100710.44;;;24.59;38.88
46944;BME280;32678;43.852;25.952;2023-05-22T15:25:42;100703.25;;;24.60;38.98
46944;BME280;32678;43.852;25.952;2023-05-22T15:30:39;100681.81;;;24.50;38.58
46944;BME280;32678;43.852;25.952;2023-05-22T15:35:39;100706.22;;;24.76;38.54
46944;BME280;32678;43.852;25.952;2023-05-22T15:40:37;100699.72;;;24.88;38.97
46944;BME280;32678;43.852;25.952;2023-05-22T15:45:35;100695.91;;;24.72;38.89
46944;BME280;32678;43.852;25.952;2023-05-22T15:50:32;100693.91;;;24.83;39.31
46944;BME280;32678;43.852;25.952;2023-05-22T15:55:32;100688.00;;;24.60;38.59
46944;BME280;32678;43.852;25.952;2023-05-22T16:00:29;100703.81;;;24.44;39.28
46944;BME280;32678;43.852;25.952;2023-05-22T16:05:26;100705.38;;;24.47;39.50
46944;BME280;32678;43.852;25.952;2023-05-22T16:10:23;100706.22;;;24.38;39.87
46944;BME280;32678;43.852;25.952;2023-05-22T16:15:21;100707.75;;;24.50;39.86
46944;BME280;32678;43.852;25.952;2023-05-22T16:20:20;100711.84;;;24.35;40.28
46944;BME280;32678;43.852;25.952;2023-05-22T16:25:18;100712.13;;;24.51;40.57
46944;BME280;32678;43.852;25.952;2023-05-22T16:30:15;100714.69;;;24.52;40.47
46944;BME280;32678;43.852;25.952;2023-05-22T16:35:13;100714.53;;;24.54;40.63
46944;BME280;32678;43.852;25.952;2023-05-22T16:40:10;100707.06;;;24.38;40.09
46944;BME280;32678;43.852;25.952;2023-05-22T16:45:25;100711.28;;;24.50;40.47
46944;BME280;32678;43.852;25.952;2023-05-22T16:50:23;100709.31;;;24.33;40.71
46944;BME280;32678;43.852;25.952;2023-05-22T16:55:20;100715.66;;;24.51;40.31
46944;BME280;32678;43.852;25.952;2023-05-22T17:00:17;100718.34;;;24.61;40.30
46944;BME280;32678;43.852;25.952;2023-05-22T17:05:14;100729.19;;;24.40;41.36
46944;BME280;32678;43.852;25.952;2023-05-22T17:10:11;100733.03;;;24.47;41.65
46944;BME280;32678;43.852;25.952;2023-05-22T17:15:09;100736.69;;;24.66;42.11
46944;BME280;32678;43.852;25.952;2023-05-22T17:20:06;100742.34;;;24.63;42.44
46944;BME280;32678;43.852;25.952;2023-05-22T17:25:05;100749.66;;;24.60;42.43
46944;BME280;32678;43.852;25.952;2023-05-22T17:30:04;100759.53;;;24.60;42.65
46944;BME280;32678;43.852;25.952;2023-05-22T17:35:02;100765.44;;;24.54;42.56
46944;BME280;32678;43.852;25.952;2023-05-22T17:40:03;100776.47;;;24.51;42.66
46944;BME280;32678;43.852;25.952;2023-05-22T17:45:01;100774.88;;;24.39;42.51
46944;BME280;32678;43.852;25.952;2023-05-22T17:49:58;100783.34;;;24.44;42.25
46944;BME280;32678;43.852;25.952;2023-05-22T17:54:55;100794.66;;;24.38;42.09
46944;BME280;32678;43.852;25.952;2023-05-22T17:59:52;100800.56;;;24.01;42.40
46944;BME280;32678;43.852;25.952;2023-05-22T18:04:49;100810.47;;;23.80;42.76
46944;BME280;32678;43.852;25.952;2023-05-22T18:09:47;100818.56;;;23.59;42.85
46944;BME280;32678;43.852;25.952;2023-05-22T18:14:45;100821.31;;;23.48;43.24
46944;BME280;32678;43.852;25.952;2023-05-22T18:19:42;100823.28;;;23.77;42.57
46944;BME280;32678;43.852;25.952;2023-05-22T18:24:39;100825.59;;;23.91;42.07
46944;BME280;32678;43.852;25.952;2023-05-22T18:29:36;100830.56;;;23.95;42.42
46944;BME280;32678;43.852;25.952;2023-05-22T18:34:34;100832.75;;;24.11;42.31
46944;BME280;32678;43.852;25.952;2023-05-22T18:39:33;100835.06;;;24.25;42.44
46944;BME280;32678;43.852;25.952;2023-05-22T18:44:30;100833.56;;;24.32;42.42
46944;BME280;32678;43.852;25.952;2023-05-22T18:49:28;100844.28;;;24.32;42.47
46944;BME280;32678;43.852;25.952;2023-05-22T18:54:25;100832.63;;;24.12;42.80
46944;BME280;32678;43.852;25.952;2023-05-22T18:59:22;100846.00;;;24.12;43.32
46944;BME280;32678;43.852;25.952;2023-05-22T19:04:19;100860.75;;;24.28;43.93
46944;BME280;32678;43.852;25.952;2023-05-22T19:09:17;100854.97;;;24.02;46.48
46944;BME280;32678;43.852;25.952;2023-05-22T19:14:13;100858.84;;;24.09;46.64
46944;BME280;32678;43.852;25.952;2023-05-22T19:19:10;100863.25;;;24.20;46.36
46944;BME280;32678;43.852;25.952;2023-05-22T19:24:08;100878.72;;;24.16;45.81
46944;BME280;32678;43.852;25.952;2023-05-22T19:29:05;100875.25;;;24.25;45.09
46944;BME280;32678;43.852;25.952;2023-05-22T19:34:02;100885.28;;;24.23;44.95
46944;BME280;32678;43.852;25.952;2023-05-22T19:38:59;100872.38;;;23.66;47.43
46944;BME280;32678;43.852;25.952;2023-05-22T19:43:56;100891.88;;;23.36;48.66
46944;BME280;32678;43.852;25.952;2023-05-22T19:48:53;100892.31;;;22.77;50.68
46944;BME280;32678;43.852;25.952;2023-05-22T19:53:50;100897.56;;;22.79;52.08
46944;BME280;32678;43.852;25.952;2023-05-22T19:58:46;100896.81;;;23.20;51.59
46944;BME280;32678;43.852;25.952;2023-05-22T20:03:43;100891.97;;;23.46;50.87
46944;BME280;32678;43.852;25.952;2023-05-22T20:08:41;100889.41;;;23.55;51.38
46944;BME280;32678;43.852;25.952;2023-05-22T20:13:39;100889.06;;;23.69;51.49
46944;BME280;32678;43.852;25.952;2023-05-22T20:18:35;100891.91;;;23.78;51.75
46944;BME280;32678;43.852;25.952;2023-05-22T20:23:33;100895.06;;;23.62;51.95
46944;BME280;32678;43.852;25.952;2023-05-22T20:28:33;100901.38;;;23.82;51.77
46944;BME280;32678;43.852;25.952;2023-05-22T20:33:29;100883.81;;;23.89;51.68
46944;BME280;32678;43.852;25.952;2023-05-22T20:38:26;100897.44;;;23.86;52.56
46944;BME280;32678;43.852;25.952;2023-05-22T20:43:24;100899.94;;;23.78;53.00
46944;BME280;32678;43.852;25.952;2023-05-22T20:48:21;100908.84;;;23.78;52.63
46944;BME280;32678;43.852;25.952;2023-05-22T20:53:18;100890.38;;;23.54;52.48
46944;BME280;32678;43.852;25.952;2023-05-22T20:58:15;100903.94;;;23.62;52.57
46944;BME280;32678;43.852;25.952;2023-05-22T21:03:12;100912.03;;;23.72;52.74
46944;BME280;32678;43.852;25.952;2023-05-22T21:08:09;100922.28;;;23.67;52.78
46944;BME280;32678;43.852;25.952;2023-05-22T21:13:06;100908.97;;;23.77;52.55
46944;BME280;32678;43.852;25.952;2023-05-22T21:18:02;100915.50;;;23.84;52.21
46944;BME280;32678;43.852;25.952;2023-05-22T21:22:59;100925.22;;;23.85;52.49
46944;BME280;32678;43.852;25.952;2023-05-22T21:27:56;100924.97;;;23.67;53.00
46944;BME280;32678;43.852;25.952;2023-05-22T21:32:53;100914.59;;;23.42;54.15
46944;BME280;32678;43.852;25.952;2023-05-22T21:37:51;100917.75;;;23.47;54.31
46944;BME280;32678;43.852;25.952;2023-05-22T21:42:48;100918.22;;;23.52;54.31
46944;BME280;32678;43.852;25.952;2023-05-22T21:47:45;100914.19;;;23.25;55.16
46944;BME280;32678;43.852;25.952;2023-05-22T21:52:42;100922.03;;;23.06;56.25
46944;BME280;32678;43.852;25.952;2023-05-22T21:57:42;100914.78;;;22.64;58.64
46944;BME280;32678;43.852;25.952;2023-05-22T22:02:40;100910.56;;;22.61;59.00
46944;BME280;32678;43.852;25.952;2023-05-22T22:07:38;100911.03;;;22.66;58.88
46944;BME280;32678;43.852;25.952;2023-05-22T22:12:34;100916.41;;;22.33;60.08
46944;BME280;32678;43.852;25.952;2023-05-22T22:17:31;100918.00;;;21.67;63.07
46944;BME280;32678;43.852;25.952;2023-05-22T22:22:29;100913.50;;;21.33;63.93
46944;BME280;32678;43.852;25.952;2023-05-22T22:27:26;100908.78;;;21.71;62.59
46944;BME280;32678;43.852;25.952;2023-05-22T22:32:23;100910.13;;;21.77;60.96
46944;BME280;32678;43.852;25.952;2023-05-22T22:37:20;100910.34;;;21.63;61.30
46944;BME280;32678;43.852;25.952;2023-05-22T22:42:18;100897.78;;;21.41;62.46
46944;BME280;32678;43.852;25.952;2023-05-22T22:47:15;100882.66;;;21.52;62.44
46944;BME280;32678;43.852;25.952;2023-05-22T22:52:12;100888.31;;;21.37;62.92
46944;BME280;32678;43.852;25.952;2023-05-22T22:57:09;100881.38;;;20.87;65.01
46944;BME280;32678;43.852;25.952;2023-05-22T23:02:05;100878.84;;;21.33;64.05
46944;BME280;32678;43.852;25.952;2023-05-22T23:07:03;100873.22;;;21.71;62.45
46944;BME280;32678;43.852;25.952;2023-05-22T23:12:00;100867.34;;;22.00;61.46
46944;BME280;32678;43.852;25.952;2023-05-22T23:16:58;100866.13;;;22.04;60.91
46944;BME280;32678;43.852;25.952;2023-05-22T23:21:54;100865.88;;;22.19;60.49
46944;BME280;32678;43.852;25.952;2023-05-22T23:26:52;100863.47;;;22.38;59.48
46944;BME280;32678;43.852;25.952;2023-05-22T23:31:48;100845.84;;;22.24;59.26
46944;BME280;32678;43.852;25.952;2023-05-22T23:36:45;100869.75;;;22.48;59.18
46944;BME280;32678;43.852;25.952;2023-05-22T23:41:42;100863.31;;;22.51;59.15
46944;BME280;32678;43.852;25.952;2023-05-22T23:46:40;100862.38;;;22.40;59.24
46944;BME280;32678;43.852;25.952;2023-05-22T23:51:38;100866.63;;;22.21;59.47
46944;BME280;32678;43.852;25.952;2023-05-22T23:56:34;100875.00;;;22.16;58.92
